createdAt,value
2017-07-14T06:13:56.054Z,2512
2017-07-14T06:14:57.427Z,2424
2017-07-14T06:16:18.881Z,2248
2017-07-14T06:17:20.255Z,2104
2017-07-14T06:18:41.707Z,1976
2017-07-14T06:19:43.080Z,1832
2017-07-14T06:21:04.563Z,964
2017-07-14T06:22:05.927Z,1068
2017-07-14T06:23:27.382Z,1136
2017-07-14T06:24:28.751Z,1264
2017-07-14T06:25:50.212Z,1280
2017-07-14T06:26:51.586Z,1100
2017-07-14T06:27:52.950Z,976
2017-07-14T06:28:54.320Z,952
2017-07-14T06:29:55.692Z,908
2017-07-14T06:30:57.072Z,872
2017-07-14T06:31:58.438Z,844
2017-07-14T06:32:59.806Z,868
2017-07-14T06:34:01.192Z,908
2017-07-14T06:35:02.557Z,912
2017-07-14T06:36:03.925Z,1048
2017-07-14T06:37:05.291Z,1188
2017-07-14T06:38:06.661Z,1184
2017-07-14T06:39:08.041Z,1204
2017-07-14T06:40:09.415Z,1148
2017-07-14T06:41:10.780Z,1128
2017-07-14T06:42:12.151Z,1100
2017-07-14T06:43:13.520Z,1244
2017-07-14T06:44:14.898Z,1400
2017-07-14T06:45:16.265Z,1480
2017-07-14T06:46:17.653Z,1364
2017-07-14T06:47:19.021Z,1256
2017-07-14T06:48:20.391Z,1344
2017-07-14T06:49:21.767Z,1396
2017-07-14T06:50:23.133Z,1340
2017-07-14T06:51:24.513Z,1168
2017-07-14T06:52:26.791Z,1064
2017-07-14T06:53:28.161Z,1036
2017-07-14T06:54:29.535Z,956
2017-07-14T06:55:30.906Z,900
2017-07-14T06:56:32.283Z,888
2017-07-14T06:57:33.649Z,924
2017-07-14T06:58:35.016Z,944
2017-07-14T06:59:36.399Z,924
2017-07-14T07:00:37.770Z,876
2017-07-14T07:01:39.141Z,856
2017-07-14T07:02:40.510Z,860
2017-07-14T07:03:41.877Z,852
2017-07-14T07:04:43.245Z,844
2017-07-14T07:05:44.625Z,820
2017-07-14T07:06:46.000Z,812
2017-07-14T07:07:47.371Z,792
2017-07-14T07:08:48.747Z,792
2017-07-14T07:09:50.111Z,776
2017-07-14T07:10:51.479Z,740
2017-07-14T07:11:52.848Z,712
2017-07-14T07:12:54.221Z,676
2017-07-14T07:13:55.598Z,640
2017-07-14T07:14:56.968Z,616
2017-07-14T07:15:58.339Z,588
2017-07-14T07:16:59.716Z,584
2017-07-14T07:18:01.086Z,604
2017-07-14T07:19:02.453Z,632
2017-07-14T07:20:03.821Z,664
2017-07-14T07:21:05.202Z,716
2017-07-14T07:22:06.576Z,736
2017-07-14T07:23:07.943Z,776
2017-07-14T07:24:09.314Z,800
2017-07-14T07:25:10.686Z,820
2017-07-14T07:26:12.062Z,844
2017-07-14T07:27:13.431Z,856
2017-07-14T07:28:14.801Z,900
2017-07-14T07:29:16.180Z,936
2017-07-14T07:30:18.256Z,988
2017-07-14T07:31:19.622Z,1060
2017-07-14T07:32:20.993Z,1128
2017-07-14T07:33:22.365Z,1152
2017-07-14T07:34:23.745Z,1104
2017-07-14T07:35:25.112Z,1020
2017-07-14T07:36:26.484Z,952
2017-07-14T07:37:27.856Z,912
2017-07-14T07:38:29.231Z,896
2017-07-14T07:39:30.600Z,876
2017-07-14T07:40:31.969Z,876
2017-07-14T07:41:33.348Z,864
2017-07-14T07:42:34.720Z,864
2017-07-14T07:43:36.092Z,868
2017-07-14T07:44:37.464Z,884
2017-07-14T07:45:38.829Z,880
2017-07-14T07:46:40.206Z,860
2017-07-14T07:47:41.587Z,824
2017-07-14T07:48:42.962Z,760
2017-07-14T07:49:44.330Z,748
2017-07-14T07:50:45.705Z,740
2017-07-14T07:51:47.074Z,752
2017-07-14T07:52:48.449Z,780
2017-07-14T07:53:49.824Z,788
2017-07-14T07:54:51.191Z,800
2017-07-14T07:55:52.564Z,792
2017-07-14T07:56:53.934Z,792
2017-07-14T07:57:55.305Z,784
2017-07-14T07:58:56.685Z,780
2017-07-14T07:59:58.060Z,784
2017-07-14T08:00:59.425Z,792
2017-07-14T08:02:00.796Z,792
2017-07-14T08:03:02.168Z,788
2017-07-14T08:04:03.541Z,792
2017-07-14T08:05:04.916Z,800
2017-07-14T08:06:06.287Z,812
2017-07-14T08:07:07.665Z,828
2017-07-14T08:08:09.029Z,904
2017-07-14T08:09:10.409Z,1088
2017-07-14T08:10:11.785Z,1452
2017-07-14T08:11:13.154Z,1488
2017-07-14T08:12:14.541Z,1532
2017-07-14T08:13:15.911Z,1864
2017-07-14T08:14:17.282Z,1660
2017-07-14T08:15:18.658Z,1464
2017-07-14T08:16:20.025Z,1540
2017-07-14T08:17:21.398Z,1648
2017-07-14T08:18:22.776Z,1652
2017-07-14T08:19:24.153Z,1788
2017-07-14T08:20:25.523Z,1928
2017-07-14T08:21:26.899Z,1736
2017-07-14T08:22:28.278Z,1664
2017-07-14T08:23:29.648Z,1788
2017-07-14T08:24:31.019Z,1864
2017-07-14T08:25:32.390Z,2160
2017-07-14T08:26:33.775Z,2460
2017-07-14T08:27:35.837Z,2532
2017-07-14T08:28:37.207Z,2624
2017-07-14T08:29:38.586Z,2320
2017-07-14T08:30:39.959Z,2216
2017-07-14T08:31:41.333Z,2108
2017-07-14T08:32:42.707Z,1980
2017-07-14T08:33:44.086Z,1852
2017-07-14T08:34:45.464Z,1664
2017-07-14T08:35:46.836Z,1548
2017-07-14T08:36:48.200Z,1484
2017-07-14T08:37:49.577Z,1364
2017-07-14T08:38:50.952Z,1336
2017-07-14T08:39:52.318Z,1272
2017-07-14T08:40:53.695Z,1256
2017-07-14T08:41:55.078Z,1160
2017-07-14T08:42:56.447Z,1092
2017-07-14T08:43:58.430Z,1152
2017-07-14T08:44:59.799Z,1368
2017-07-14T08:46:01.175Z,1804
2017-07-14T08:47:02.556Z,2056
2017-07-14T08:48:03.927Z,1872
2017-07-14T08:49:05.305Z,1744
2017-07-14T08:50:06.674Z,1680
2017-07-14T08:51:08.044Z,1524
2017-07-14T08:52:09.424Z,1376
2017-07-14T08:53:10.811Z,1324
2017-07-14T08:54:12.183Z,1016
2017-07-14T08:55:13.558Z,940
2017-07-14T08:56:14.937Z,1044
2017-07-14T08:57:17.258Z,1228
2017-07-14T08:58:18.634Z,1496
2017-07-14T08:59:20.011Z,1876
2017-07-14T09:00:21.380Z,2236
2017-07-14T09:01:23.458Z,2156
2017-07-14T09:02:24.833Z,1904
2017-07-14T09:03:26.207Z,1944
2017-07-14T09:04:27.587Z,2068
2017-07-14T09:05:28.966Z,2252
2017-07-14T09:06:30.334Z,2036
2017-07-14T09:07:31.707Z,1976
2017-07-14T09:08:33.633Z,1976
2017-07-14T09:09:35.008Z,1796
2017-07-14T09:10:36.381Z,1472
2017-07-14T09:11:37.751Z,1104
2017-07-14T09:12:39.130Z,980
2017-07-14T09:13:40.500Z,968
2017-07-14T09:14:41.884Z,1056
2017-07-14T09:15:43.259Z,1144
2017-07-14T09:16:44.631Z,1164
2017-07-14T09:17:46.014Z,1208
2017-07-14T09:18:47.379Z,1116
2017-07-14T09:19:48.754Z,1144
2017-07-14T09:20:50.133Z,1228
2017-07-14T09:21:51.506Z,1284
2017-07-14T09:22:52.879Z,1344
2017-07-14T09:23:54.257Z,1220
2017-07-14T09:24:55.629Z,1152
2017-07-14T09:25:57.012Z,1220
2017-07-14T09:26:58.380Z,1396
2017-07-14T09:27:59.752Z,1604
2017-07-14T09:29:01.135Z,1644
2017-07-14T09:30:02.511Z,1500
2017-07-14T09:31:03.888Z,1520
2017-07-14T09:32:05.262Z,1812
2017-07-14T09:33:06.630Z,2220
2017-07-14T09:34:08.005Z,2704
2017-07-14T09:35:09.375Z,3008
2017-07-14T09:36:10.746Z,3220
2017-07-14T09:37:12.129Z,3252
2017-07-14T09:38:13.509Z,3264
2017-07-14T09:39:14.879Z,3396
2017-07-14T09:40:16.251Z,3536
2017-07-14T09:41:17.626Z,3520
2017-07-14T09:42:19.834Z,3492
2017-07-14T09:43:21.209Z,3464
2017-07-14T09:44:22.651Z,3516
2017-07-14T09:45:24.037Z,3620
2017-07-14T09:46:25.418Z,3892
2017-07-14T09:47:26.786Z,4140
2017-07-14T09:48:28.159Z,4228
2017-07-14T09:49:30.446Z,4372
2017-07-14T09:50:31.830Z,4452
2017-07-14T09:51:33.200Z,4488
2017-07-14T09:52:35.379Z,4512
2017-07-14T09:53:35.907Z,4364
2017-07-14T09:54:37.275Z,4152
2017-07-14T09:55:38.658Z,4280
2017-07-14T09:56:40.638Z,4312
2017-07-14T09:57:42.018Z,4280
2017-07-14T09:58:43.387Z,4304
2017-07-14T09:59:44.765Z,4160
2017-07-14T10:00:46.146Z,3852
2017-07-14T10:01:47.513Z,3460
2017-07-14T10:02:48.895Z,3044
2017-07-14T10:03:50.265Z,2492
2017-07-14T10:04:51.639Z,1760
2017-07-14T10:05:53.016Z,1596
2017-07-14T10:06:54.384Z,1540
2017-07-14T10:07:55.769Z,1524
2017-07-14T10:08:57.144Z,1668
2017-07-14T10:09:58.521Z,1972
2017-07-14T10:10:59.889Z,2332
2017-07-14T10:12:01.267Z,2652
2017-07-14T10:13:02.657Z,2924
2017-07-14T10:14:04.022Z,3084
2017-07-14T10:15:06.189Z,3104
2017-07-14T10:16:07.570Z,3156
2017-07-14T10:17:08.945Z,3268
2017-07-14T10:18:10.316Z,3368
2017-07-14T10:19:11.693Z,3360
2017-07-14T10:20:13.064Z,3452
2017-07-14T10:21:14.437Z,3440
2017-07-14T10:22:15.822Z,3264
2017-07-14T10:23:17.192Z,3032
2017-07-14T10:24:18.574Z,2884
2017-07-14T10:25:19.960Z,2640
2017-07-14T10:26:21.322Z,2420
2017-07-14T10:27:22.708Z,2436
2017-07-14T10:28:24.079Z,2780
2017-07-14T10:29:25.454Z,3468
2017-07-14T10:30:26.840Z,4184
2017-07-14T10:31:28.219Z,4368
2017-07-14T10:32:29.590Z,4104
2017-07-14T10:33:30.963Z,4124
2017-07-14T10:34:32.923Z,4016
2017-07-14T10:35:34.308Z,4088
2017-07-14T10:36:35.679Z,4316
2017-07-14T10:37:37.054Z,4744
2017-07-14T10:38:38.430Z,5016
2017-07-14T10:39:39.809Z,4992
2017-07-14T10:40:41.182Z,4968
2017-07-14T10:41:42.555Z,4792
2017-07-14T10:42:43.936Z,4948
2017-07-14T10:43:45.321Z,4856
2017-07-14T10:44:46.688Z,4712
2017-07-14T10:45:48.829Z,4668
2017-07-14T10:46:50.204Z,4516
2017-07-14T10:47:51.580Z,4548
2017-07-14T10:48:52.951Z,4724
2017-07-14T10:49:54.329Z,4760
2017-07-14T10:50:55.712Z,4680
2017-07-14T10:51:57.089Z,4868
2017-07-14T10:52:58.462Z,5080
2017-07-14T10:53:59.831Z,4872
2017-07-14T10:55:01.227Z,4644
2017-07-14T10:56:02.596Z,4628
2017-07-14T10:57:03.966Z,4492
2017-07-14T10:58:05.342Z,4692
2017-07-14T10:59:07.309Z,4648
2017-07-14T11:00:08.681Z,4568
2017-07-14T11:01:10.060Z,4808
2017-07-14T11:02:11.432Z,4920
2017-07-14T11:03:12.805Z,5108
2017-07-14T11:04:14.182Z,4872
2017-07-14T11:05:15.558Z,4784
2017-07-14T11:06:16.927Z,4724
2017-07-14T11:07:18.298Z,4828
2017-07-14T11:08:19.682Z,4860
2017-07-14T11:09:21.059Z,4972
2017-07-14T11:10:22.430Z,4828
2017-07-14T11:11:23.863Z,4668
2017-07-14T11:12:25.224Z,4228
2017-07-14T11:13:26.603Z,3816
2017-07-14T11:14:27.978Z,3688
2017-07-14T11:15:29.349Z,3752
2017-07-14T11:16:30.736Z,3776
2017-07-14T11:17:32.111Z,3852
2017-07-14T11:18:33.480Z,3708
2017-07-14T11:19:34.855Z,3572
2017-07-14T11:20:36.226Z,3384
2017-07-14T11:21:37.604Z,3236
2017-07-14T11:22:38.973Z,3280
2017-07-14T11:23:40.348Z,3344
2017-07-14T11:24:41.725Z,3492
2017-07-14T11:25:43.108Z,3784
2017-07-14T11:26:44.483Z,4156
2017-07-14T11:27:45.851Z,4404
2017-07-14T11:28:47.232Z,4596
2017-07-14T11:29:48.611Z,4792
2017-07-14T11:30:49.982Z,5140
2017-07-14T11:31:51.353Z,5780
2017-07-14T11:32:52.724Z,6060
2017-07-14T11:33:54.773Z,5888
2017-07-14T11:34:56.142Z,5584
2017-07-14T11:35:57.511Z,5428
2017-07-14T11:36:58.885Z,5300
2017-07-14T11:38:00.265Z,5108
2017-07-14T11:39:01.647Z,4760
2017-07-14T11:40:03.019Z,4360
2017-07-14T11:41:04.401Z,4424
2017-07-14T11:42:05.777Z,4592
2017-07-14T11:43:07.157Z,5016
2017-07-14T11:44:08.527Z,5732
2017-07-14T11:45:09.908Z,5684
2017-07-14T11:46:11.304Z,5412
2017-07-14T11:47:12.689Z,5532
2017-07-14T11:48:14.063Z,4960
2017-07-14T11:49:15.436Z,4588
2017-07-14T11:50:16.814Z,3884
2017-07-14T11:51:18.210Z,3636
2017-07-14T11:52:20.563Z,3224
2017-07-14T11:53:21.935Z,3240
2017-07-14T11:54:23.324Z,3632
2017-07-14T11:55:24.698Z,3708
2017-07-14T11:56:26.070Z,3424
2017-07-14T11:57:27.442Z,3252
2017-07-14T11:58:28.825Z,3044
2017-07-14T11:59:30.204Z,3120
2017-07-14T12:00:31.570Z,2464
2017-07-14T12:01:32.946Z,2300
2017-07-14T12:02:34.325Z,2076
2017-07-14T12:03:35.702Z,2052
2017-07-14T12:04:37.071Z,2240
2017-07-14T12:05:38.441Z,2284
2017-07-14T12:06:39.815Z,2480
2017-07-14T12:07:41.193Z,2608
2017-07-14T12:08:42.571Z,2728
2017-07-14T12:09:43.956Z,2240
2017-07-14T12:10:45.322Z,1552
2017-07-14T12:11:46.705Z,1308
2017-07-14T12:12:48.079Z,1384
2017-07-14T12:13:49.448Z,1520
2017-07-14T12:14:50.830Z,1692
2017-07-14T12:15:52.215Z,1956
2017-07-14T12:16:53.590Z,2232
2017-07-14T12:17:54.962Z,2560
2017-07-14T12:18:56.339Z,2708
2017-07-14T12:19:57.704Z,2476
2017-07-14T12:20:59.088Z,2144
2017-07-14T12:22:00.461Z,1960
2017-07-14T12:23:02.598Z,2104
2017-07-14T12:24:03.982Z,2324
2017-07-14T12:25:05.353Z,2384
2017-07-14T12:26:06.729Z,2520
2017-07-14T12:27:08.102Z,2764
2017-07-14T12:28:09.480Z,3944
2017-07-14T12:29:10.858Z,5788
2017-07-14T12:30:12.233Z,5756
2017-07-14T12:31:13.604Z,4768
2017-07-14T12:32:14.979Z,5472
2017-07-14T12:33:16.360Z,5888
2017-07-14T12:34:17.741Z,4560
2017-07-14T12:35:19.107Z,3896
2017-07-14T12:36:20.491Z,3288
2017-07-14T12:37:21.867Z,2836
2017-07-14T12:38:23.245Z,2616
2017-07-14T12:39:24.624Z,2788
2017-07-14T12:40:26.000Z,2896
2017-07-14T12:41:27.372Z,3424
2017-07-14T12:42:28.756Z,3836
2017-07-14T12:43:30.132Z,4012
2017-07-14T12:44:31.504Z,3868
2017-07-14T12:45:32.878Z,3916
2017-07-14T12:46:34.260Z,4012
2017-07-14T12:47:35.647Z,3952
2017-07-14T12:48:37.026Z,4136
2017-07-14T12:49:38.406Z,4440
2017-07-14T12:50:39.776Z,4628
2017-07-14T12:51:41.159Z,4660
2017-07-14T12:52:42.529Z,4616
2017-07-14T12:53:43.929Z,4408
2017-07-14T12:54:45.287Z,4084
2017-07-14T12:55:46.664Z,3592
2017-07-14T12:56:48.036Z,3312
2017-07-14T12:57:49.411Z,3164
2017-07-14T12:58:50.787Z,3216
2017-07-14T12:59:52.173Z,3428
2017-07-14T13:00:53.541Z,3580
2017-07-14T13:01:55.806Z,3444
2017-07-14T13:02:57.181Z,3028
2017-07-14T13:03:58.561Z,2856
2017-07-14T13:04:59.938Z,2752
2017-07-14T13:06:01.312Z,2576
2017-07-14T13:07:02.697Z,2396
2017-07-14T13:08:04.073Z,2172
2017-07-14T13:09:06.090Z,2140
2017-07-14T13:10:07.460Z,2000
2017-07-14T13:11:08.829Z,1608
2017-07-14T13:12:10.205Z,1216
2017-07-14T13:13:11.580Z,1132
2017-07-14T13:14:12.973Z,1124
2017-07-14T13:15:14.344Z,972
2017-07-14T13:16:15.713Z,1004
2017-07-14T13:17:17.096Z,996
2017-07-14T13:18:18.473Z,984
2017-07-14T13:19:19.844Z,836
2017-07-14T13:20:21.220Z,628
2017-07-14T13:21:22.589Z,484
2017-07-14T13:22:23.969Z,388
2017-07-14T13:23:25.343Z,436
2017-07-14T13:24:26.715Z,580
2017-07-14T13:25:28.091Z,628
2017-07-14T13:26:29.471Z,540
2017-07-14T13:27:30.846Z,500
2017-07-14T13:28:32.218Z,476
2017-07-14T13:29:33.593Z,432
2017-07-14T13:30:34.969Z,372
2017-07-14T13:31:36.335Z,332
2017-07-14T13:32:37.707Z,424
2017-07-14T13:33:39.084Z,588
2017-07-14T13:34:40.465Z,680
2017-07-14T13:35:41.832Z,688
2017-07-14T13:36:43.202Z,860
2017-07-14T13:37:44.579Z,1016
2017-07-14T13:38:45.966Z,1104
2017-07-14T13:39:47.342Z,1064
2017-07-14T13:40:48.708Z,1000
2017-07-14T13:41:50.724Z,964
2017-07-14T13:42:52.103Z,1008
2017-07-14T13:43:53.472Z,1024
2017-07-14T13:44:54.841Z,948
2017-07-14T13:45:56.209Z,828
2017-07-14T13:46:57.592Z,648
2017-07-14T13:47:58.962Z,508
2017-07-14T13:49:00.333Z,536
2017-07-14T13:50:01.715Z,648
2017-07-14T13:51:03.086Z,756
2017-07-14T13:52:04.464Z,680
2017-07-14T13:53:05.826Z,596
2017-07-14T13:54:07.194Z,688
2017-07-14T13:55:08.573Z,1012
2017-07-14T13:56:09.946Z,1360
2017-07-14T13:57:11.317Z,1364
2017-07-14T13:58:12.698Z,1192
2017-07-14T13:59:14.081Z,1128
2017-07-14T14:00:15.452Z,1084
2017-07-14T14:01:16.823Z,1100
2017-07-14T14:02:18.206Z,1152
2017-07-14T14:03:19.584Z,1212
2017-07-14T14:04:20.953Z,1260
2017-07-14T14:05:22.322Z,1372
2017-07-14T14:06:23.700Z,1516
2017-07-14T14:07:25.076Z,1528
2017-07-14T14:08:26.445Z,1408
2017-07-14T14:09:27.820Z,1464
2017-07-14T14:10:29.199Z,1524
2017-07-14T14:11:30.574Z,1288
2017-07-14T14:12:31.947Z,1288
2017-07-14T14:13:33.319Z,1344
2017-07-14T14:14:34.698Z,1684
2017-07-14T14:15:36.071Z,2076
2017-07-14T14:16:37.445Z,2192
2017-07-14T14:17:38.831Z,1896
2017-07-14T14:18:40.221Z,1348
2017-07-14T14:19:41.571Z,1340
2017-07-14T14:20:42.952Z,1608
2017-07-14T14:21:44.327Z,1672
2017-07-14T14:22:45.697Z,1544
2017-07-14T14:23:47.071Z,1880
2017-07-14T14:24:48.453Z,1444
2017-07-14T14:25:49.827Z,932
2017-07-14T14:26:51.193Z,720
2017-07-14T14:27:52.567Z,876
2017-07-14T14:28:53.939Z,1240
2017-07-14T14:29:55.320Z,1340
2017-07-14T14:30:56.726Z,1236
2017-07-14T14:31:58.098Z,1308
2017-07-14T14:32:59.482Z,1396
2017-07-14T14:34:00.854Z,1340
2017-07-14T14:35:02.225Z,1304
2017-07-14T14:36:03.596Z,1252
2017-07-14T14:37:04.972Z,1132
2017-07-14T14:38:06.355Z,1128
2017-07-14T14:39:07.726Z,1372
2017-07-14T14:40:09.099Z,1612
2017-07-14T14:41:10.475Z,1680
2017-07-14T14:42:11.855Z,1364
2017-07-14T14:43:13.221Z,1308
2017-07-14T14:44:14.594Z,1568
2017-07-14T14:45:15.979Z,1744
2017-07-14T14:46:17.355Z,1808
2017-07-14T14:47:18.761Z,1516
2017-07-14T14:48:20.100Z,1420
2017-07-14T14:49:21.478Z,1480
2017-07-14T14:50:22.846Z,1376
2017-07-14T14:51:24.217Z,1244
2017-07-14T14:52:25.601Z,1320
2017-07-14T14:53:26.973Z,2076
2017-07-14T14:54:28.346Z,3028
2017-07-14T14:55:29.718Z,4300
2017-07-14T14:56:31.979Z,6368
2017-07-14T14:57:33.382Z,6812
2017-07-14T14:58:34.754Z,7248
2017-07-14T14:59:36.125Z,9012
2017-07-14T15:00:37.509Z,8020
2017-07-14T15:01:38.888Z,6272
2017-07-14T15:02:40.255Z,5316
2017-07-14T15:03:41.628Z,3656
2017-07-14T15:04:43.004Z,2736
2017-07-14T15:05:44.381Z,2456
2017-07-14T15:06:45.761Z,2560
2017-07-14T15:07:48.058Z,2900
2017-07-14T15:08:49.447Z,3384
2017-07-14T15:09:50.822Z,3800
2017-07-14T15:10:52.188Z,3972
2017-07-14T15:11:53.564Z,4008
2017-07-14T15:12:54.950Z,4364
2017-07-14T15:13:56.320Z,4468
2017-07-14T15:14:57.695Z,3688
2017-07-14T15:15:59.067Z,3504
2017-07-14T15:17:00.445Z,3452
2017-07-14T15:18:01.817Z,3592
2017-07-14T15:19:03.189Z,3780
2017-07-14T15:20:04.562Z,10932
2017-07-14T15:21:05.946Z,5116
2017-07-14T15:22:07.327Z,5740
2017-07-14T15:23:08.705Z,9764
2017-07-14T15:24:10.083Z,9768
2017-07-14T15:25:11.457Z,36896
2017-07-14T15:26:12.829Z,8440
2017-07-14T15:27:14.216Z,6088
2017-07-14T15:28:15.587Z,4672
2017-07-14T15:29:16.963Z,2900
2017-07-14T15:30:18.345Z,2268
2017-07-14T15:31:19.721Z,2240
2017-07-14T15:32:21.089Z,1928
2017-07-14T15:33:22.463Z,1656
2017-07-14T15:34:23.837Z,1528
2017-07-14T15:35:25.212Z,1464
2017-07-14T15:36:26.594Z,1268
2017-07-14T15:37:27.962Z,1012
2017-07-14T15:38:29.335Z,928
2017-07-14T15:39:30.711Z,916
2017-07-14T15:40:32.076Z,904
2017-07-14T15:41:33.447Z,936
2017-07-14T15:42:34.820Z,908
2017-07-14T15:43:36.198Z,796
2017-07-14T15:44:37.566Z,656
2017-07-14T15:45:38.936Z,540
2017-07-14T15:46:40.315Z,476
2017-07-14T15:47:41.687Z,408
2017-07-14T15:48:43.055Z,364
2017-07-14T15:49:44.427Z,340
2017-07-14T15:50:45.810Z,332
2017-07-14T15:51:47.214Z,340
2017-07-14T15:52:48.592Z,360
2017-07-14T15:53:49.956Z,392
2017-07-14T15:54:51.331Z,400
2017-07-14T15:55:52.708Z,400
2017-07-14T15:56:54.086Z,416
2017-07-14T15:57:55.452Z,448
2017-07-14T15:58:56.824Z,376
2017-07-14T15:59:58.201Z,324
2017-07-14T16:00:59.574Z,260
2017-07-14T16:02:01.031Z,296
2017-07-14T16:03:02.437Z,256
2017-07-14T16:04:03.818Z,240
2017-07-14T16:05:05.216Z,152
2017-07-14T16:06:06.624Z,204
2017-07-14T16:07:08.004Z,340
2017-07-14T16:08:09.380Z,112
2017-07-14T16:09:10.775Z,96
2017-07-14T16:10:12.199Z,148
2017-07-14T16:11:13.574Z,160
2017-07-14T16:12:14.973Z,144
2017-07-14T16:13:16.352Z,212
2017-07-14T16:14:17.723Z,376
2017-07-14T16:15:19.096Z,520
2017-07-14T16:16:20.473Z,636
2017-07-14T16:17:21.849Z,812
2017-07-14T16:18:23.289Z,1088
2017-07-14T16:19:24.671Z,1332
2017-07-14T16:20:26.050Z,1388
2017-07-14T16:21:27.431Z,1344
2017-07-14T16:22:28.812Z,1340
2017-07-14T16:23:30.190Z,1408
2017-07-14T16:24:31.573Z,1468
2017-07-14T16:25:32.951Z,1476
2017-07-14T16:26:34.318Z,1548
2017-07-14T16:27:35.698Z,1660
2017-07-14T16:28:37.062Z,1688
2017-07-14T16:29:38.440Z,1572
2017-07-14T16:30:39.816Z,1428
2017-07-14T16:31:41.193Z,1264
2017-07-14T16:32:42.568Z,1024
2017-07-14T16:33:43.945Z,652
2017-07-14T16:34:45.327Z,488
2017-07-14T16:35:46.698Z,584
2017-07-14T16:36:48.067Z,768
2017-07-14T16:37:49.443Z,924
2017-07-14T16:38:50.820Z,940
2017-07-14T16:39:52.202Z,904
2017-07-14T16:40:53.577Z,936
2017-07-14T16:41:54.950Z,1072
2017-07-14T16:42:56.326Z,1196
2017-07-14T16:43:57.690Z,1068
2017-07-14T16:44:59.066Z,812
2017-07-14T16:46:00.483Z,660
2017-07-14T16:47:01.859Z,628
2017-07-14T16:48:03.247Z,656
2017-07-14T16:49:04.608Z,696
2017-07-14T16:50:05.987Z,612
2017-07-14T16:51:07.361Z,484
2017-07-14T16:52:08.727Z,372
2017-07-14T16:53:10.098Z,316
2017-07-14T16:54:11.486Z,312
2017-07-14T16:55:12.905Z,340
2017-07-14T16:56:14.281Z,364
2017-07-14T16:57:15.644Z,380
2017-07-14T16:58:17.017Z,384
2017-07-14T16:59:18.398Z,416
2017-07-14T17:00:19.778Z,436
2017-07-14T17:01:21.160Z,456
2017-07-14T17:02:22.539Z,456
2017-07-14T17:03:23.908Z,468
2017-07-14T17:04:25.286Z,564
2017-07-14T17:05:26.658Z,760
2017-07-14T17:06:28.048Z,1064
2017-07-14T17:07:29.400Z,1168
2017-07-14T17:08:30.776Z,888
2017-07-14T17:09:32.155Z,604
2017-07-14T17:10:33.529Z,396
2017-07-14T17:11:34.899Z,240
2017-07-14T17:12:36.305Z,240
2017-07-14T17:13:37.688Z,272
2017-07-14T17:14:39.058Z,280
2017-07-14T17:15:40.440Z,408
2017-07-14T17:16:41.822Z,536
2017-07-14T17:17:43.204Z,472
2017-07-14T17:18:44.567Z,556
2017-07-14T17:19:45.937Z,748
2017-07-14T17:20:47.321Z,780
2017-07-14T17:21:48.695Z,736
2017-07-14T17:22:50.068Z,708
2017-07-14T17:23:51.440Z,628
2017-07-14T17:24:52.819Z,528
2017-07-14T17:25:54.272Z,528
2017-07-14T17:26:55.658Z,640
2017-07-14T17:27:57.028Z,748
2017-07-14T17:28:58.397Z,600
2017-07-14T17:29:59.780Z,556
2017-07-14T17:31:02.072Z,520
2017-07-14T17:32:03.444Z,464
2017-07-14T17:33:04.876Z,380
2017-07-14T17:34:06.285Z,384
2017-07-14T17:35:07.692Z,428
2017-07-14T17:36:09.109Z,484
2017-07-14T17:37:11.111Z,484
2017-07-14T17:38:12.590Z,488
2017-07-14T17:39:13.974Z,456
2017-07-14T17:40:15.443Z,460
2017-07-14T17:41:17.367Z,580
2017-07-14T17:42:18.842Z,672
2017-07-14T17:43:20.277Z,696
2017-07-14T17:44:21.668Z,752
2017-07-14T17:45:23.128Z,752
2017-07-14T17:46:24.571Z,888
2017-07-14T17:47:26.179Z,1560
2017-07-14T17:48:27.712Z,1616
2017-07-14T17:49:29.201Z,1484
2017-07-14T17:50:30.724Z,1140
2017-07-14T17:51:32.187Z,940
2017-07-14T17:52:33.649Z,976
2017-07-14T17:53:35.160Z,1460
2017-07-14T17:54:36.563Z,1700
2017-07-14T17:55:38.079Z,1584
2017-07-14T17:56:39.539Z,1632
2017-07-14T17:57:41.058Z,1732
2017-07-14T17:58:42.449Z,1424
2017-07-14T17:59:43.969Z,1532
2017-07-14T18:00:45.408Z,960
2017-07-14T18:01:46.797Z,1388
2017-07-14T18:02:48.243Z,2120
2017-07-14T18:03:49.723Z,2468
2017-07-14T18:04:51.235Z,2240
2017-07-14T18:05:52.665Z,1684
2017-07-14T18:06:54.069Z,1236
2017-07-14T18:07:55.564Z,1024
2017-07-14T18:08:57.620Z,904
2017-07-14T18:09:59.095Z,756
2017-07-14T18:11:00.691Z,560
2017-07-14T18:12:02.115Z,488
2017-07-14T18:13:03.501Z,492
2017-07-14T18:14:04.915Z,464
2017-07-14T18:15:06.402Z,380
2017-07-14T18:16:07.866Z,340
2017-07-14T18:17:09.483Z,376
2017-07-14T18:18:10.978Z,400
2017-07-14T18:19:12.510Z,504
2017-07-14T18:20:14.009Z,668
2017-07-14T18:21:15.547Z,672
2017-07-14T18:22:16.998Z,696
2017-07-14T18:23:18.524Z,796
2017-07-14T18:24:20.043Z,652
2017-07-14T18:25:21.566Z,728
2017-07-14T18:26:23.074Z,540
2017-07-14T18:27:24.549Z,468
2017-07-14T18:28:25.933Z,668
2017-07-14T18:29:27.312Z,876
2017-07-14T18:30:28.766Z,1076
2017-07-14T18:31:30.194Z,1128
2017-07-14T18:32:31.621Z,1480
2017-07-14T18:33:33.094Z,1392
2017-07-14T18:34:34.472Z,1268
2017-07-14T18:35:35.960Z,1180
2017-07-14T18:36:37.498Z,1044
2017-07-14T18:37:39.056Z,1028
2017-07-14T18:38:40.488Z,760
2017-07-14T18:39:41.945Z,640
2017-07-14T18:40:43.439Z,500
2017-07-14T18:41:44.931Z,488
2017-07-14T18:42:46.420Z,472
2017-07-14T18:43:48.630Z,444
2017-07-14T18:44:50.034Z,424
2017-07-14T18:45:51.516Z,412
2017-07-14T18:46:53.545Z,396
2017-07-14T18:47:55.033Z,384
2017-07-14T18:48:56.473Z,372
2017-07-14T18:49:58.013Z,368
2017-07-14T18:50:59.483Z,360
2017-07-14T18:52:00.958Z,356
2017-07-14T18:53:02.445Z,376
2017-07-14T18:54:03.923Z,428
2017-07-14T18:55:05.432Z,448
2017-07-14T18:56:06.997Z,420
2017-07-14T18:57:08.474Z,400
2017-07-14T18:58:10.034Z,428
2017-07-14T18:59:11.512Z,444
2017-07-14T19:00:13.009Z,460
2017-07-14T19:01:14.516Z,408
2017-07-14T19:02:15.972Z,360
2017-07-14T19:03:17.576Z,316
2017-07-14T19:04:19.000Z,296
2017-07-14T19:05:20.498Z,300
2017-07-14T19:06:22.007Z,292
2017-07-14T19:07:23.520Z,296
2017-07-14T19:08:24.998Z,284
2017-07-14T19:09:26.453Z,264
2017-07-14T19:10:27.897Z,232
2017-07-14T19:11:30.133Z,208
2017-07-14T19:12:31.691Z,204
2017-07-14T19:13:33.146Z,200
2017-07-14T19:14:34.609Z,188
2017-07-14T19:15:36.064Z,176
2017-07-14T19:16:37.453Z,168
2017-07-14T19:17:38.966Z,168
2017-07-14T19:18:41.107Z,176
2017-07-14T19:19:42.598Z,180
2017-07-14T19:20:44.253Z,176
2017-07-14T19:21:46.504Z,164
2017-07-14T19:22:47.995Z,156
2017-07-14T19:23:49.408Z,136
2017-07-14T19:24:50.990Z,132
2017-07-14T19:25:52.524Z,120
2017-07-14T19:26:54.047Z,112
2017-07-14T19:27:55.549Z,104
2017-07-14T19:28:57.079Z,96
2017-07-14T19:29:58.714Z,88
2017-07-14T19:31:00.232Z,84
2017-07-14T19:32:01.768Z,76
2017-07-14T19:33:03.439Z,72
2017-07-14T19:34:04.969Z,60
2017-07-14T19:35:07.255Z,52
2017-07-14T19:36:08.784Z,52
2017-07-14T19:37:10.450Z,52
2017-07-14T19:38:11.997Z,48
2017-07-14T19:39:13.517Z,44
2017-07-14T19:40:15.101Z,40
2017-07-14T19:41:16.683Z,32
2017-07-14T19:42:18.312Z,32
2017-07-14T19:43:19.835Z,28
2017-07-14T19:44:21.365Z,24
2017-07-14T19:45:22.946Z,20
2017-07-14T19:46:24.527Z,16
2017-07-14T19:47:26.204Z,12
2017-07-14T19:48:27.855Z,8
2017-07-14T19:49:29.426Z,8
2017-07-14T19:50:31.054Z,8
2017-07-14T19:51:32.616Z,12
2017-07-14T19:52:34.202Z,8
2017-07-14T19:53:35.742Z,8
2017-07-14T19:54:37.367Z,8
2017-07-14T19:55:38.933Z,8
2017-07-14T19:56:40.482Z,8
2017-07-14T19:57:42.080Z,8
2017-07-14T19:58:43.612Z,8
2017-07-14T19:59:45.234Z,8
2017-07-14T20:00:46.813Z,4
2017-07-14T20:01:48.335Z,4
2017-07-14T20:02:50.091Z,4
2017-07-14T20:03:51.706Z,4
2017-07-14T20:04:53.233Z,4
2017-07-14T20:05:54.772Z,4